createdAt,value
2023-04-15T00:01:25.327Z,4.30
2023-04-15T00:07:18.813Z,4.57
2023-04-15T00:13:12.293Z,5.40
2023-04-15T00:19:07.189Z,4.30
2023-04-15T00:25:00.782Z,3.53
2023-04-15T00:30:54.266Z,3.87
2023-04-15T00:36:49.211Z,3.47
2023-04-15T00:42:42.613Z,3.53
2023-04-15T00:48:36.748Z,3.93
2023-04-15T00:54:31.696Z,3.80
2023-04-15T01:00:25.713Z,4.30
2023-04-15T01:06:19.841Z,4.40
2023-04-15T01:12:16.843Z,4.33
2023-04-15T01:18:10.826Z,4.63
2023-04-15T01:24:10.137Z,3.80
2023-04-15T01:30:05.351Z,4.33
2023-04-15T01:35:59.131Z,4.50
2023-04-15T01:41:52.638Z,4.97
2023-04-15T01:47:47.664Z,4.40
2023-04-15T01:53:41.458Z,5.30
2023-04-15T01:59:35.503Z,6.00
2023-04-15T02:05:30.451Z,5.50
2023-04-15T02:11:24.318Z,5.87
2023-04-15T02:17:19.548Z,7.30
2023-04-15T02:23:14.831Z,8.30
2023-04-15T02:29:10.754Z,8.20
2023-04-15T02:35:05.978Z,8.80
2023-04-15T02:41:00.860Z,9.07
2023-04-15T02:46:55.323Z,9.60
2023-04-15T02:52:48.891Z,11.43
2023-04-15T02:58:45.126Z,11.90
2023-04-15T03:04:38.630Z,14.20
2023-04-15T03:10:31.776Z,14.87
2023-04-15T03:16:26.456Z,17.10
2023-04-15T03:22:20.139Z,15.30
2023-04-15T03:28:14.523Z,15.43
2023-04-15T03:34:09.500Z,17.97
2023-04-15T03:40:03.942Z,17.90
2023-04-15T03:45:56.983Z,17.47
2023-04-15T03:51:52.035Z,15.37
2023-04-15T03:57:45.071Z,19.43
2023-04-15T04:03:38.752Z,18.97
2023-04-15T04:09:33.692Z,18.30
2023-04-15T04:15:27.086Z,18.73
2023-04-15T04:21:21.456Z,19.13
2023-04-15T04:27:16.485Z,20.10
2023-04-15T04:33:10.131Z,21.23
2023-04-15T04:39:03.808Z,25.33
2023-04-15T04:44:58.686Z,25.03
2023-04-15T04:50:52.022Z,28.80
2023-04-15T04:56:45.508Z,31.07
2023-04-15T05:02:42.150Z,29.50
2023-04-15T05:08:35.553Z,31.97
2023-04-15T05:14:29.048Z,32.10
2023-04-15T05:20:23.508Z,31.17
2023-04-15T05:26:17.023Z,29.73
2023-04-15T05:32:10.775Z,34.00
2023-04-15T05:38:06.086Z,31.73
2023-04-15T05:44:00.624Z,32.20
2023-04-15T05:49:53.948Z,31.93
2023-04-15T05:55:48.908Z,34.93
2023-04-15T06:01:42.662Z,35.40
2023-04-15T06:07:36.502Z,38.77
2023-04-15T06:13:31.397Z,39.60
2023-04-15T06:19:25.029Z,36.20
2023-04-15T06:25:18.845Z,37.03
2023-04-15T06:31:13.776Z,38.27
2023-04-15T06:37:07.528Z,37.30
2023-04-15T06:43:00.636Z,39.47
2023-04-15T06:48:55.503Z,41.77
2023-04-15T06:54:48.563Z,38.40
2023-04-15T07:00:42.433Z,36.67
2023-04-15T07:06:37.083Z,42.90
2023-04-15T07:12:30.537Z,41.80
2023-04-15T07:18:23.600Z,38.10
2023-04-15T07:24:20.113Z,36.77
2023-04-15T07:30:13.858Z,40.33
2023-04-15T07:36:07.285Z,38.90
2023-04-15T07:42:02.556Z,37.93
2023-04-15T07:47:56.456Z,36.80
2023-04-15T07:53:50.364Z,40.17
2023-04-15T07:59:44.953Z,37.73
2023-04-15T08:05:38.398Z,39.67
2023-04-15T08:11:31.495Z,40.73
2023-04-15T08:17:26.235Z,38.60
2023-04-15T08:23:19.860Z,41.00
2023-04-15T08:29:12.902Z,38.90
2023-04-15T08:35:08.113Z,43.17
2023-04-15T08:41:05.240Z,47.67
2023-04-15T08:47:02.583Z,43.80
2023-04-15T08:53:00.168Z,43.47
2023-04-15T08:58:54.855Z,43.67
2023-04-15T09:04:48.143Z,42.53
2023-04-15T09:10:43.036Z,39.10
2023-04-15T09:17:04.262Z,40.97
2023-04-15T09:22:57.969Z,38.27
2023-04-15T09:28:52.935Z,32.77
2023-04-15T09:34:46.495Z,31.87
2023-04-15T09:40:42.296Z,35.20
2023-04-15T09:46:47.530Z,28.90
2023-04-15T09:52:44.567Z,30.10
2023-04-15T09:58:39.183Z,26.80
2023-04-15T10:04:37.107Z,30.17
2023-04-15T10:10:30.897Z,21.60
2023-04-15T10:16:27.991Z,26.30
2023-04-15T10:22:23.903Z,20.03
2023-04-15T10:28:18.409Z,21.13
2023-04-15T10:34:12.357Z,17.27
2023-04-15T10:40:28.874Z,17.10
2023-04-15T10:46:37.093Z,16.17
2023-04-15T10:52:30.663Z,16.97
2023-04-15T10:58:27.352Z,18.17
2023-04-15T11:04:53.459Z,18.90
2023-04-15T11:10:56.292Z,16.67
2023-04-15T11:16:50.966Z,16.17
2023-04-15T11:22:49.470Z,14.93
2023-04-15T11:28:45.325Z,18.10
2023-04-15T11:34:40.333Z,15.13
2023-04-15T11:40:35.393Z,17.47
2023-04-15T11:46:32.695Z,15.33
2023-04-15T11:52:27.611Z,13.03
2023-04-15T11:58:22.873Z,12.37
2023-04-15T12:04:20.811Z,12.73
2023-04-15T12:10:19.018Z,12.83
2023-04-15T12:16:12.318Z,14.70
2023-04-15T12:22:07.902Z,16.43
2023-04-15T12:28:02.356Z,13.90
2023-04-15T12:33:56.682Z,14.23
2023-04-15T12:39:51.424Z,13.17
2023-04-15T12:45:46.713Z,14.07
2023-04-15T12:51:39.759Z,13.23
2023-04-15T12:57:33.402Z,14.10
2023-04-15T13:03:28.492Z,14.73
2023-04-15T13:09:22.160Z,17.00
2023-04-15T13:15:15.688Z,16.33
2023-04-15T13:21:11.337Z,15.53
2023-04-15T13:27:05.503Z,13.73
2023-04-15T13:32:59.098Z,14.30
2023-04-15T13:38:54.065Z,13.17
2023-04-15T13:44:47.609Z,13.60
2023-04-15T13:50:45.584Z,14.20
2023-04-15T13:56:40.652Z,12.47
2023-04-15T14:02:34.480Z,9.27
2023-04-15T14:08:27.935Z,9.93
2023-04-15T14:14:22.824Z,10.50
2023-04-15T14:20:17.201Z,10.27
2023-04-15T14:26:11.048Z,10.67
2023-04-15T14:32:12.386Z,11.13
2023-04-15T14:38:06.086Z,9.63
2023-04-15T14:43:59.110Z,14.73
2023-04-15T14:49:54.094Z,10.80
2023-04-15T14:55:47.209Z,12.47
2023-04-15T15:01:40.848Z,12.20
2023-04-15T15:07:36.460Z,11.37
2023-04-15T15:13:29.983Z,12.40
2023-04-15T15:19:24.094Z,12.57
2023-04-15T15:25:18.967Z,11.30
2023-04-15T15:31:12.479Z,9.83
2023-04-15T15:37:05.628Z,10.07
2023-04-15T15:43:00.541Z,10.20
2023-04-15T15:48:54.029Z,10.80
2023-04-15T15:54:47.253Z,11.93
2023-04-15T16:00:42.668Z,12.33
2023-04-15T16:06:36.274Z,13.77
2023-04-15T16:12:29.852Z,12.97
2023-04-15T16:18:24.774Z,13.77
2023-04-15T16:24:18.324Z,15.77
2023-04-15T16:30:12.834Z,16.13
2023-04-15T16:36:08.300Z,16.77
2023-04-15T16:42:02.612Z,17.40
2023-04-15T16:47:56.765Z,18.00
2023-04-15T16:53:51.868Z,18.33
2023-04-15T16:59:45.359Z,19.20
2023-04-15T17:05:40.131Z,18.40
2023-04-15T17:11:35.744Z,22.40
2023-04-15T17:17:29.266Z,17.40
2023-04-15T17:23:22.894Z,19.60
2023-04-15T17:29:17.900Z,19.97
2023-04-15T17:35:11.914Z,19.37
2023-04-15T17:41:07.774Z,17.83
2023-04-15T17:47:02.712Z,16.23
2023-04-15T17:52:56.332Z,18.40
2023-04-15T17:58:49.838Z,18.70
2023-04-15T18:04:44.948Z,17.60
2023-04-15T18:10:39.741Z,17.07
2023-04-15T18:19:05.992Z,17.17
2023-04-15T18:25:04.651Z,19.47
2023-04-15T18:30:58.192Z,24.00
2023-04-15T18:36:53.131Z,18.93
2023-04-15T18:42:46.266Z,19.67
2023-04-15T18:48:39.836Z,20.63
2023-04-15T18:54:34.879Z,18.53
2023-04-15T19:00:28.445Z,18.77
2023-04-15T19:06:22.644Z,18.80
2023-04-15T19:12:17.144Z,20.90
2023-04-15T19:18:10.962Z,17.93
2023-04-15T19:24:04.201Z,18.53
2023-04-15T19:29:59.872Z,21.10
2023-04-15T19:35:53.384Z,17.33
2023-04-15T19:41:47.932Z,18.70
2023-04-15T19:47:43.004Z,16.63
2023-04-15T19:53:36.150Z,24.53
2023-04-15T19:59:29.703Z,16.87
2023-04-15T20:05:24.711Z,17.63
2023-04-15T20:11:18.512Z,21.23
2023-04-15T20:17:12.017Z,18.47
2023-04-15T20:23:06.920Z,16.00
2023-04-15T20:29:00.974Z,21.67
2023-04-15T20:34:54.453Z,17.80
2023-04-15T20:40:49.045Z,28.90
2023-04-15T20:46:42.137Z,20.93
2023-04-15T20:52:35.158Z,18.43
2023-04-15T20:58:30.020Z,21.07
2023-04-15T21:04:24.794Z,20.80
2023-04-15T21:10:17.915Z,19.70
2023-04-15T21:16:12.844Z,20.60
2023-04-15T21:22:06.442Z,18.30
2023-04-15T21:27:59.949Z,20.53
2023-04-15T21:33:54.782Z,20.50
2023-04-15T21:39:48.459Z,21.20
2023-04-15T21:46:20.764Z,20.60
2023-04-15T21:52:01.233Z,20.53
2023-04-15T21:57:54.590Z,23.37
2023-04-15T22:03:47.855Z,20.50
2023-04-15T22:09:42.828Z,23.80
2023-04-15T22:15:36.113Z,19.90
2023-04-15T22:21:29.653Z,22.40
2023-04-15T22:27:24.123Z,20.03
2023-04-15T22:33:17.637Z,18.73
2023-04-15T22:39:11.231Z,20.50
2023-04-15T22:45:07.008Z,18.00
2023-04-15T22:51:00.533Z,22.20
2023-04-15T22:56:53.815Z,19.13
2023-04-15T23:02:48.972Z,19.43
2023-04-15T23:08:42.834Z,24.07
2023-04-15T23:14:35.967Z,19.20
2023-04-15T23:20:30.831Z,21.53
2023-04-15T23:26:24.368Z,21.10
2023-04-15T23:32:17.857Z,22.80
2023-04-15T23:38:12.310Z,21.67
2023-04-15T23:44:06.256Z,22.30
2023-04-15T23:49:59.287Z,20.07
2023-04-15T23:55:54.147Z,20.33
